sensor_id;sensor_type;location;lat;lon;timestamp;pressure;altitude;pressure_sealevel;temperature;humidity
76060;BME280;64759;52.220;5.170;2023-04-24T00:00:08;99712.63;;;10.55;87.70
76060;BME280;64759;52.220;5.170;2023-04-24T00:02:38;99722.84;;;10.56;87.29
76060;BME280;64759;52.220;5.170;2023-04-24T00:05:04;99717.66;;;10.56;86.82
76060;BME280;64759;52.220;5.170;2023-04-24T00:07:30;99729.00;;;10.47;86.56
76060;BME280;64759;52.220;5.170;2023-04-24T00:09:56;99738.53;;;10.55;86.09
76060;BME280;64759;52.220;5.170;2023-04-24T00:12:21;99738.03;;;10.59;85.65
76060;BME280;64759;52.220;5.170;2023-04-24T00:14:47;99748.06;;;10.54;86.06
76060;BME280;64759;52.220;5.170;2023-04-24T00:17:12;99750.00;;;10.60;85.82
76060;BME280;64759;52.220;5.170;2023-04-24T00:19:38;99746.78;;;10.50;86.40
76060;BME280;64759;52.220;5.170;2023-04-24T00:22:04;99758.78;;;10.43;87.15
76060;BME280;64759;52.220;5.170;2023-04-24T00:24:29;99758.66;;;10.36;86.96
76060;BME280;64759;52.220;5.170;2023-04-24T00:26:55;99767.53;;;10.34;87.02
76060;BME280;64759;52.220;5.170;2023-04-24T00:29:20;99771.41;;;10.38;86.94
76060;BME280;64759;52.220;5.170;2023-04-24T00:31:45;99774.66;;;10.32;86.57
76060;BME280;64759;52.220;5.170;2023-04-24T00:34:12;99782.91;;;10.27;86.93
76060;BME280;64759;52.220;5.170;2023-04-24T00:36:39;99796.34;;;10.23;87.77
76060;BME280;64759;52.220;5.170;2023-04-24T00:39:04;99797.31;;;10.14;88.17
76060;BME280;64759;52.220;5.170;2023-04-24T00:41:30;99796.66;;;10.20;88.12
76060;BME280;64759;52.220;5.170;2023-04-24T00:43:55;99804.25;;;10.21;87.76
76060;BME280;64759;52.220;5.170;2023-04-24T00:46:21;99804.09;;;10.23;87.75
76060;BME280;64759;52.220;5.170;2023-04-24T00:48:47;99806.50;;;10.08;88.74
76060;BME280;64759;52.220;5.170;2023-04-24T00:51:13;99812.66;;;10.07;88.36
76060;BME280;64759;52.220;5.170;2023-04-24T00:53:38;99812.97;;;10.12;88.60
76060;BME280;64759;52.220;5.170;2023-04-24T00:56:04;99809.75;;;10.18;88.37
76060;BME280;64759;52.220;5.170;2023-04-24T00:58:30;99821.56;;;10.13;88.51
76060;BME280;64759;52.220;5.170;2023-04-24T01:00:56;99834.94;;;10.08;88.44
76060;BME280;64759;52.220;5.170;2023-04-24T01:03:29;99828.97;;;10.00;88.90
76060;BME280;64759;52.220;5.170;2023-04-24T01:05:57;99819.59;;;10.07;88.88
76060;BME280;64759;52.220;5.170;2023-04-24T01:08:24;99819.75;;;9.97;89.05
76060;BME280;64759;52.220;5.170;2023-04-24T01:10:51;99833.16;;;9.93;89.29
76060;BME280;64759;52.220;5.170;2023-04-24T01:13:19;99830.75;;;9.91;89.38
76060;BME280;64759;52.220;5.170;2023-04-24T01:15:45;99833.81;;;9.95;89.15
76060;BME280;64759;52.220;5.170;2023-04-24T01:18:11;99834.31;;;10.06;88.25
76060;BME280;64759;52.220;5.170;2023-04-24T01:20:37;99830.91;;;10.06;88.01
76060;BME280;64759;52.220;5.170;2023-04-24T01:23:05;99838.97;;;10.03;88.15
76060;BME280;64759;52.220;5.170;2023-04-24T01:25:31;99837.38;;;10.02;88.54
76060;BME280;64759;52.220;5.170;2023-04-24T01:27:57;99841.91;;;10.08;88.65
76060;BME280;64759;52.220;5.170;2023-04-24T01:30:23;99832.38;;;10.08;88.13
76060;BME280;64759;52.220;5.170;2023-04-24T01:32:49;99835.44;;;10.04;88.48
76060;BME280;64759;52.220;5.170;2023-04-24T01:35:15;99829.47;;;10.11;88.17
76060;BME280;64759;52.220;5.170;2023-04-24T01:37:40;99833.19;;;10.09;88.63
76060;BME280;64759;52.220;5.170;2023-04-24T01:40:06;99835.31;;;10.13;88.19
76060;BME280;64759;52.220;5.170;2023-04-24T01:42:32;99838.84;;;10.12;88.58
76060;BME280;64759;52.220;5.170;2023-04-24T01:44:59;99837.53;;;10.08;88.55
76060;BME280;64759;52.220;5.170;2023-04-24T01:47:25;99843.72;;;10.15;88.26
76060;BME280;64759;52.220;5.170;2023-04-24T01:49:50;99847.72;;;10.02;88.63
76060;BME280;64759;52.220;5.170;2023-04-24T01:52:16;99846.28;;;10.07;88.64
76060;BME280;64759;52.220;5.170;2023-04-24T01:54:43;99841.75;;;10.09;88.42
76060;BME280;64759;52.220;5.170;2023-04-24T01:57:09;99854.66;;;10.01;88.74
76060;BME280;64759;52.220;5.170;2023-04-24T01:59:34;99860.78;;;10.00;89.38
76060;BME280;64759;52.220;5.170;2023-04-24T02:02:02;99851.47;;;10.07;88.45
76060;BME280;64759;52.220;5.170;2023-04-24T02:04:27;99852.25;;;10.08;88.04
76060;BME280;64759;52.220;5.170;2023-04-24T02:06:53;99860.50;;;10.11;87.87
76060;BME280;64759;52.220;5.170;2023-04-24T02:09:18;99847.88;;;10.08;88.38
76060;BME280;64759;52.220;5.170;2023-04-24T02:11:44;99851.13;;;10.02;88.37
76060;BME280;64759;52.220;5.170;2023-04-24T02:14:09;99851.78;;;10.12;87.50
76060;BME280;64759;52.220;5.170;2023-04-24T02:16:35;99855.00;;;10.06;87.31
76060;BME280;64759;52.220;5.170;2023-04-24T02:19:01;99854.19;;;10.06;87.82
76060;BME280;64759;52.220;5.170;2023-04-24T02:21:27;99858.09;;;10.10;87.51
76060;BME280;64759;52.220;5.170;2023-04-24T02:23:53;99861.59;;;9.93;87.45
76060;BME280;64759;52.220;5.170;2023-04-24T02:26:19;99859.50;;;9.88;87.78
76060;BME280;64759;52.220;5.170;2023-04-24T02:28:44;99852.38;;;9.82;87.73
76060;BME280;64759;52.220;5.170;2023-04-24T02:31:10;99858.22;;;10.00;87.30
76060;BME280;64759;52.220;5.170;2023-04-24T02:33:35;99861.16;;;9.97;86.78
76060;BME280;64759;52.220;5.170;2023-04-24T02:36:02;99857.56;;;9.82;86.55
76060;BME280;64759;52.220;5.170;2023-04-24T02:38:28;99860.31;;;9.88;87.02
76060;BME280;64759;52.220;5.170;2023-04-24T02:40:54;99853.50;;;9.79;86.90
76060;BME280;64759;52.220;5.170;2023-04-24T02:43:20;99865.16;;;9.83;87.18
76060;BME280;64759;52.220;5.170;2023-04-24T02:45:45;99860.16;;;9.82;87.75
76060;BME280;64759;52.220;5.170;2023-04-24T02:48:11;99867.59;;;9.85;87.56
76060;BME280;64759;52.220;5.170;2023-04-24T02:50:36;99857.69;;;9.80;87.84
76060;BME280;64759;52.220;5.170;2023-04-24T02:53:02;99860.97;;;9.82;87.74
76060;BME280;64759;52.220;5.170;2023-04-24T02:55:27;99861.44;;;9.86;88.25
76060;BME280;64759;52.220;5.170;2023-04-24T02:57:53;99864.69;;;9.80;88.07
76060;BME280;64759;52.220;5.170;2023-04-24T03:00:19;99856.09;;;9.71;88.58
76060;BME280;64759;52.220;5.170;2023-04-24T03:02:44;99866.13;;;9.82;88.34
76060;BME280;64759;52.220;5.170;2023-04-24T03:05:10;99858.03;;;9.85;88.38
76060;BME280;64759;52.220;5.170;2023-04-24T03:07:37;99859.34;;;9.90;88.00
76060;BME280;64759;52.220;5.170;2023-04-24T03:10:04;99859.50;;;9.96;87.98
76060;BME280;64759;52.220;5.170;2023-04-24T03:12:31;99861.59;;;9.93;87.27
76060;BME280;64759;52.220;5.170;2023-04-24T03:14:56;99858.53;;;9.89;86.96
76060;BME280;64759;52.220;5.170;2023-04-24T03:17:21;99868.22;;;9.87;87.35
76060;BME280;64759;52.220;5.170;2023-04-24T03:19:47;99867.25;;;9.88;87.37
76060;BME280;64759;52.220;5.170;2023-04-24T03:22:13;99868.22;;;9.87;87.38
76060;BME280;64759;52.220;5.170;2023-04-24T03:24:39;99861.09;;;9.81;87.84
76060;BME280;64759;52.220;5.170;2023-04-24T03:27:05;99860.13;;;9.74;88.00
76060;BME280;64759;52.220;5.170;2023-04-24T03:29:53;99858.19;;;9.76;88.23
76060;BME280;64759;52.220;5.170;2023-04-24T03:32:23;99866.75;;;9.76;87.93
76060;BME280;64759;52.220;5.170;2023-04-24T03:34:49;99862.41;;;9.85;88.16
76060;BME280;64759;52.220;5.170;2023-04-24T03:37:16;99861.16;;;9.97;87.46
76060;BME280;64759;52.220;5.170;2023-04-24T03:39:49;99860.94;;;9.91;88.09
76060;BME280;64759;52.220;5.170;2023-04-24T03:42:18;99869.34;;;9.93;87.46
76060;BME280;64759;52.220;5.170;2023-04-24T03:44:51;99862.91;;;9.88;87.61
76060;BME280;64759;52.220;5.170;2023-04-24T03:47:18;99854.81;;;9.83;87.68
76060;BME280;64759;52.220;5.170;2023-04-24T03:49:45;99861.41;;;9.78;87.42
76060;BME280;64759;52.220;5.170;2023-04-24T03:52:11;99864.53;;;9.90;87.13
76060;BME280;64759;52.220;5.170;2023-04-24T03:54:37;99854.16;;;9.81;87.08
76060;BME280;64759;52.220;5.170;2023-04-24T03:57:02;99854.81;;;9.83;87.39
76060;BME280;64759;52.220;5.170;2023-04-24T03:59:31;99861.91;;;9.73;87.52
76060;BME280;64759;52.220;5.170;2023-04-24T04:02:14;99867.91;;;9.82;87.65
76060;BME280;64759;52.220;5.170;2023-04-24T04:04:40;99865.00;;;9.85;87.48
76060;BME280;64759;52.220;5.170;2023-04-24T04:07:05;99871.63;;;9.88;87.36
76060;BME280;64759;52.220;5.170;2023-04-24T04:09:31;99871.94;;;9.84;87.69
76060;BME280;64759;52.220;5.170;2023-04-24T04:11:57;99871.13;;;9.84;87.61
76060;BME280;64759;52.220;5.170;2023-04-24T04:14:23;99878.38;;;9.72;87.97
76060;BME280;64759;52.220;5.170;2023-04-24T04:16:48;99882.09;;;9.78;87.82
76060;BME280;64759;52.220;5.170;2023-04-24T04:19:14;99879.69;;;9.76;87.57
76060;BME280;64759;52.220;5.170;2023-04-24T04:21:39;99885.66;;;9.77;87.98
76060;BME280;64759;52.220;5.170;2023-04-24T04:24:23;99893.72;;;9.74;88.50
76060;BME280;64759;52.220;5.170;2023-04-24T04:26:50;99892.78;;;9.75;88.76
76060;BME280;64759;52.220;5.170;2023-04-24T04:29:22;99892.94;;;9.81;88.68
76060;BME280;64759;52.220;5.170;2023-04-24T04:31:50;99899.41;;;9.85;88.31
76060;BME280;64759;52.220;5.170;2023-04-24T04:34:15;99899.25;;;9.87;88.19
76060;BME280;64759;52.220;5.170;2023-04-24T04:36:41;99900.06;;;9.79;88.16
76060;BME280;64759;52.220;5.170;2023-04-24T04:39:28;99909.75;;;9.85;88.50
76060;BME280;64759;52.220;5.170;2023-04-24T04:41:58;99910.88;;;9.75;87.97
76060;BME280;64759;52.220;5.170;2023-04-24T04:44:30;99922.03;;;9.83;88.10
76060;BME280;64759;52.220;5.170;2023-04-24T04:46:57;99928.00;;;9.84;88.27
76060;BME280;64759;52.220;5.170;2023-04-24T04:49:29;99931.75;;;9.90;88.40
76060;BME280;64759;52.220;5.170;2023-04-24T04:51:55;99930.28;;;9.95;87.71
76060;BME280;64759;52.220;5.170;2023-04-24T04:54:22;99929.50;;;9.95;87.71
76060;BME280;64759;52.220;5.170;2023-04-24T04:56:49;99939.84;;;9.95;87.80
76060;BME280;64759;52.220;5.170;2023-04-24T04:59:15;99942.91;;;9.98;88.03
76060;BME280;64759;52.220;5.170;2023-04-24T05:01:41;99953.59;;;10.03;88.26
76060;BME280;64759;52.220;5.170;2023-04-24T05:04:09;99949.41;;;10.02;87.92
76060;BME280;64759;52.220;5.170;2023-04-24T05:06:36;99954.25;;;9.97;87.37
76060;BME280;64759;52.220;5.170;2023-04-24T05:09:01;99958.41;;;9.82;87.14
76060;BME280;64759;52.220;5.170;2023-04-24T05:11:49;99960.69;;;9.85;87.41
76060;BME280;64759;52.220;5.170;2023-04-24T05:14:16;99969.03;;;9.79;87.40
76060;BME280;64759;52.220;5.170;2023-04-24T05:16:43;99973.03;;;9.65;87.24
76060;BME280;64759;52.220;5.170;2023-04-24T05:19:10;99966.72;;;9.60;87.34
76060;BME280;64759;52.220;5.170;2023-04-24T05:21:42;99976.72;;;9.55;87.96
76060;BME280;64759;52.220;5.170;2023-04-24T05:24:09;99972.81;;;9.51;87.80
76060;BME280;64759;52.220;5.170;2023-04-24T05:26:53;99977.94;;;9.43;87.08
76060;BME280;64759;52.220;5.170;2023-04-24T05:29:23;99990.50;;;9.38;87.28
76060;BME280;64759;52.220;5.170;2023-04-24T05:31:49;99991.47;;;9.37;87.89
76060;BME280;64759;52.220;5.170;2023-04-24T05:34:15;99999.84;;;9.31;88.04
76060;BME280;64759;52.220;5.170;2023-04-24T05:36:43;100004.38;;;9.37;88.07
76060;BME280;64759;52.220;5.170;2023-04-24T05:39:08;100011.66;;;9.41;88.28
76060;BME280;64759;52.220;5.170;2023-04-24T05:41:34;100014.13;;;9.43;87.94
76060;BME280;64759;52.220;5.170;2023-04-24T05:44:00;100014.56;;;9.38;87.99
76060;BME280;64759;52.220;5.170;2023-04-24T05:46:27;100017.00;;;9.40;87.48
76060;BME280;64759;52.220;5.170;2023-04-24T05:48:54;100020.22;;;9.42;87.59
76060;BME280;64759;52.220;5.170;2023-04-24T05:51:19;100028.97;;;9.41;87.52
76060;BME280;64759;52.220;5.170;2023-04-24T05:53:45;100025.09;;;9.45;87.80
76060;BME280;64759;52.220;5.170;2023-04-24T05:56:11;100039.31;;;9.41;87.71
76060;BME280;64759;52.220;5.170;2023-04-24T05:58:37;100040.59;;;9.45;87.57
76060;BME280;64759;52.220;5.170;2023-04-24T06:01:03;100047.34;;;9.38;87.75
76060;BME280;64759;52.220;5.170;2023-04-24T06:03:30;100056.06;;;9.37;88.57
76060;BME280;64759;52.220;5.170;2023-04-24T06:05:55;100070.53;;;9.30;88.75
76060;BME280;64759;52.220;5.170;2023-04-24T06:08:21;100075.72;;;9.30;88.49
76060;BME280;64759;52.220;5.170;2023-04-24T06:10:48;100079.41;;;9.27;88.21
76060;BME280;64759;52.220;5.170;2023-04-24T06:13:15;100092.59;;;9.24;89.18
76060;BME280;64759;52.220;5.170;2023-04-24T06:15:50;100101.63;;;9.20;89.08
76060;BME280;64759;52.220;5.170;2023-04-24T06:18:21;100095.81;;;9.18;89.00
76060;BME280;64759;52.220;5.170;2023-04-24T06:20:48;100110.84;;;9.23;89.14
76060;BME280;64759;52.220;5.170;2023-04-24T06:23:16;100114.38;;;9.21;89.41
76060;BME280;64759;52.220;5.170;2023-04-24T06:25:41;100123.31;;;9.27;89.00
76060;BME280;64759;52.220;5.170;2023-04-24T06:28:07;100122.22;;;9.30;89.55
76060;BME280;64759;52.220;5.170;2023-04-24T06:30:32;100137.06;;;9.28;89.11
76060;BME280;64759;52.220;5.170;2023-04-24T06:32:58;100136.22;;;9.27;88.90
76060;BME280;64759;52.220;5.170;2023-04-24T06:35:23;100147.69;;;9.25;88.80
76060;BME280;64759;52.220;5.170;2023-04-24T06:37:48;100153.38;;;9.28;89.25
76060;BME280;64759;52.220;5.170;2023-04-24T06:40:15;100157.94;;;9.34;88.76
76060;BME280;64759;52.220;5.170;2023-04-24T06:42:43;100156.97;;;9.35;89.39
76060;BME280;64759;52.220;5.170;2023-04-24T06:45:09;100174.78;;;9.38;89.22
76060;BME280;64759;52.220;5.170;2023-04-24T06:47:35;100175.06;;;9.35;88.34
76060;BME280;64759;52.220;5.170;2023-04-24T06:50:00;100179.88;;;9.30;88.44
76060;BME280;64759;52.220;5.170;2023-04-24T06:52:26;100194.53;;;9.30;88.24
76060;BME280;64759;52.220;5.170;2023-04-24T06:54:51;100200.00;;;9.27;88.22
76060;BME280;64759;52.220;5.170;2023-04-24T06:57:17;100199.59;;;9.31;88.20
76060;BME280;64759;52.220;5.170;2023-04-24T06:59:43;100207.47;;;9.30;87.62
76060;BME280;64759;52.220;5.170;2023-04-24T07:02:08;100214.09;;;9.32;87.46
76060;BME280;64759;52.220;5.170;2023-04-24T07:04:34;100214.78;;;9.34;87.78
76060;BME280;64759;52.220;5.170;2023-04-24T07:06:59;100220.47;;;9.38;87.65
76060;BME280;64759;52.220;5.170;2023-04-24T07:09:25;100222.50;;;9.34;87.41
76060;BME280;64759;52.220;5.170;2023-04-24T07:11:51;100228.00;;;9.31;86.66
76060;BME280;64759;52.220;5.170;2023-04-24T07:14:17;100235.06;;;9.29;86.54
76060;BME280;64759;52.220;5.170;2023-04-24T07:16:43;100242.97;;;9.28;86.83
76060;BME280;64759;52.220;5.170;2023-04-24T07:19:09;100241.88;;;9.30;86.97
76060;BME280;64759;52.220;5.170;2023-04-24T07:21:34;100253.16;;;9.29;85.77
76060;BME280;64759;52.220;5.170;2023-04-24T07:24:00;100256.56;;;9.30;85.93
76060;BME280;64759;52.220;5.170;2023-04-24T07:26:27;100252.69;;;9.34;86.10
76060;BME280;64759;52.220;5.170;2023-04-24T07:28:53;100259.22;;;9.38;86.13
76060;BME280;64759;52.220;5.170;2023-04-24T07:31:19;100266.97;;;9.38;86.07
76060;BME280;64759;52.220;5.170;2023-04-24T07:33:44;100268.59;;;9.39;86.16
76060;BME280;64759;52.220;5.170;2023-04-24T07:36:11;100278.63;;;9.42;86.51
76060;BME280;64759;52.220;5.170;2023-04-24T07:38:41;100278.25;;;9.37;85.83
76060;BME280;64759;52.220;5.170;2023-04-24T07:41:06;100289.41;;;9.37;85.64
76060;BME280;64759;52.220;5.170;2023-04-24T07:43:32;100292.00;;;9.37;85.76
76060;BME280;64759;52.220;5.170;2023-04-24T07:45:57;100305.84;;;9.36;85.77
76060;BME280;64759;52.220;5.170;2023-04-24T07:48:22;100308.09;;;9.31;85.95
76060;BME280;64759;52.220;5.170;2023-04-24T07:50:49;100307.94;;;9.33;86.46
76060;BME280;64759;52.220;5.170;2023-04-24T07:53:15;100316.94;;;9.29;85.27
76060;BME280;64759;52.220;5.170;2023-04-24T07:55:40;100325.38;;;9.31;85.39
76060;BME280;64759;52.220;5.170;2023-04-24T07:58:06;100328.38;;;9.26;85.09
76060;BME280;64759;52.220;5.170;2023-04-24T08:00:32;100331.38;;;9.21;84.86
76060;BME280;64759;52.220;5.170;2023-04-24T08:02:58;100327.63;;;9.16;85.77
76060;BME280;64759;52.220;5.170;2023-04-24T08:05:23;100335.34;;;8.89;85.42
76060;BME280;64759;52.220;5.170;2023-04-24T08:07:50;100352.59;;;8.88;86.02
76060;BME280;64759;52.220;5.170;2023-04-24T08:10:16;100359.97;;;8.83;86.48
76060;BME280;64759;52.220;5.170;2023-04-24T08:12:41;100369.84;;;8.88;86.85
76060;BME280;64759;52.220;5.170;2023-04-24T08:15:07;100375.25;;;8.94;86.56
76060;BME280;64759;52.220;5.170;2023-04-24T08:17:34;100385.72;;;9.02;86.61
76060;BME280;64759;52.220;5.170;2023-04-24T08:20:01;100383.94;;;9.03;86.24
76060;BME280;64759;52.220;5.170;2023-04-24T08:22:27;100402.69;;;9.05;86.29
76060;BME280;64759;52.220;5.170;2023-04-24T08:24:53;100392.34;;;9.05;86.05
76060;BME280;64759;52.220;5.170;2023-04-24T08:27:19;100403.22;;;9.08;85.91
76060;BME280;64759;52.220;5.170;2023-04-24T08:29:44;100412.59;;;9.09;84.94
76060;BME280;64759;52.220;5.170;2023-04-24T08:32:09;100412.63;;;9.00;82.84
76060;BME280;64759;52.220;5.170;2023-04-24T08:34:35;100422.13;;;8.99;82.89
76060;BME280;64759;52.220;5.170;2023-04-24T08:37:00;100416.97;;;9.09;82.81
76060;BME280;64759;52.220;5.170;2023-04-24T08:39:26;100423.31;;;9.14;81.81
76060;BME280;64759;52.220;5.170;2023-04-24T08:41:52;100428.47;;;9.14;81.74
76060;BME280;64759;52.220;5.170;2023-04-24T08:44:19;100432.66;;;9.25;80.83
76060;BME280;64759;52.220;5.170;2023-04-24T08:46:45;100436.75;;;9.28;80.37
76060;BME280;64759;52.220;5.170;2023-04-24T08:49:13;100438.78;;;9.24;79.95
76060;BME280;64759;52.220;5.170;2023-04-24T08:51:43;100440.25;;;9.27;79.19
76060;BME280;64759;52.220;5.170;2023-04-24T08:54:09;100444.75;;;9.25;78.97
76060;BME280;64759;52.220;5.170;2023-04-24T08:56:36;100445.16;;;9.30;79.34
76060;BME280;64759;52.220;5.170;2023-04-24T08:59:05;100439.94;;;9.39;78.88
76060;BME280;64759;52.220;5.170;2023-04-24T09:01:32;100455.72;;;9.36;78.28
76060;BME280;64759;52.220;5.170;2023-04-24T09:04:02;100454.25;;;9.34;78.52
76060;BME280;64759;52.220;5.170;2023-04-24T09:06:29;100463.34;;;9.38;78.46
76060;BME280;64759;52.220;5.170;2023-04-24T09:08:57;100465.84;;;9.20;77.47
76060;BME280;64759;52.220;5.170;2023-04-24T09:11:24;100464.53;;;9.16;76.28
76060;BME280;64759;52.220;5.170;2023-04-24T09:13:50;100472.91;;;9.28;77.04
76060;BME280;64759;52.220;5.170;2023-04-24T09:16:16;100482.16;;;9.30;76.82
76060;BME280;64759;52.220;5.170;2023-04-24T09:18:42;100476.03;;;9.31;75.00
76060;BME280;64759;52.220;5.170;2023-04-24T09:21:08;100479.69;;;9.38;74.80
76060;BME280;64759;52.220;5.170;2023-04-24T09:23:34;100486.03;;;9.44;75.48
76060;BME280;64759;52.220;5.170;2023-04-24T09:26:02;100482.63;;;9.53;75.02
76060;BME280;64759;52.220;5.170;2023-04-24T09:28:32;100488.22;;;9.48;74.97
76060;BME280;64759;52.220;5.170;2023-04-24T09:31:06;100487.06;;;9.60;74.77
76060;BME280;64759;52.220;5.170;2023-04-24T09:33:32;100500.47;;;9.73;74.75
76060;BME280;64759;52.220;5.170;2023-04-24T09:35:59;100506.19;;;9.77;74.14
76060;BME280;64759;52.220;5.170;2023-04-24T09:38:37;100502.59;;;9.88;75.00
76060;BME280;64759;52.220;5.170;2023-04-24T09:41:06;100507.75;;;9.88;74.77
76060;BME280;64759;52.220;5.170;2023-04-24T09:43:33;100509.91;;;9.92;73.27
76060;BME280;64759;52.220;5.170;2023-04-24T09:46:04;100509.91;;;9.92;72.16
76060;BME280;64759;52.220;5.170;2023-04-24T09:48:31;100523.63;;;9.93;71.86
76060;BME280;64759;52.220;5.170;2023-04-24T09:50:59;100516.31;;;9.88;71.05
76060;BME280;64759;52.220;5.170;2023-04-24T09:53:27;100522.97;;;9.91;70.42
76060;BME280;64759;52.220;5.170;2023-04-24T09:55:53;100524.44;;;9.93;69.76
76060;BME280;64759;52.220;5.170;2023-04-24T09:58:24;100540.75;;;10.03;70.76
76060;BME280;64759;52.220;5.170;2023-04-24T10:00:53;100541.63;;;9.94;70.59
76060;BME280;64759;52.220;5.170;2023-04-24T10:03:19;100556.25;;;9.76;71.24
76060;BME280;64759;52.220;5.170;2023-04-24T10:05:46;100549.00;;;9.52;71.29
76060;BME280;64759;52.220;5.170;2023-04-24T10:08:12;100547.88;;;9.64;71.59
76060;BME280;64759;52.220;5.170;2023-04-24T10:10:43;100564.28;;;9.73;72.35
76060;BME280;64759;52.220;5.170;2023-04-24T10:13:09;100545.38;;;9.72;71.73
76060;BME280;64759;52.220;5.170;2023-04-24T10:15:37;100548.22;;;9.79;71.98
76060;BME280;64759;52.220;5.170;2023-04-24T10:18:04;100555.38;;;9.95;71.22
76060;BME280;64759;52.220;5.170;2023-04-24T10:20:32;100551.88;;;10.13;70.19
76060;BME280;64759;52.220;5.170;2023-04-24T10:22:59;100551.28;;;10.46;71.68
76060;BME280;64759;52.220;5.170;2023-04-24T10:25:27;100541.28;;;10.87;69.42
76060;BME280;64759;52.220;5.170;2023-04-24T10:27:54;100555.72;;;10.89;68.76
76060;BME280;64759;52.220;5.170;2023-04-24T10:30:28;100549.50;;;10.65;68.90
76060;BME280;64759;52.220;5.170;2023-04-24T10:32:54;100566.50;;;10.49;70.51
76060;BME280;64759;52.220;5.170;2023-04-24T10:35:22;100566.63;;;10.30;72.37
76060;BME280;64759;52.220;5.170;2023-04-24T10:37:54;100565.38;;;10.17;72.09
76060;BME280;64759;52.220;5.170;2023-04-24T10:40:34;100577.78;;;10.04;72.52
76060;BME280;64759;52.220;5.170;2023-04-24T10:43:03;100584.31;;;9.98;72.46
76060;BME280;64759;52.220;5.170;2023-04-24T10:45:31;100586.28;;;9.86;73.45
76060;BME280;64759;52.220;5.170;2023-04-24T10:47:58;100604.56;;;9.75;74.56
76060;BME280;64759;52.220;5.170;2023-04-24T10:50:27;100605.66;;;9.73;75.53
76060;BME280;64759;52.220;5.170;2023-04-24T10:52:53;100608.13;;;9.74;75.39
76060;BME280;64759;52.220;5.170;2023-04-24T10:55:45;100608.78;;;9.76;75.36
76060;BME280;64759;52.220;5.170;2023-04-24T10:58:11;100612.19;;;9.77;75.78
76060;BME280;64759;52.220;5.170;2023-04-24T11:00:39;100600.50;;;9.63;77.04
76060;BME280;64759;52.220;5.170;2023-04-24T11:03:06;100608.22;;;9.73;77.51
76060;BME280;64759;52.220;5.170;2023-04-24T11:05:53;100611.94;;;10.17;78.57
76060;BME280;64759;52.220;5.170;2023-04-24T11:08:32;100591.47;;;10.68;75.75
76060;BME280;64759;52.220;5.170;2023-04-24T11:16:28;100601.41;;;11.34;68.25
76060;BME280;64759;52.220;5.170;2023-04-24T11:19:18;100618.16;;;11.22;66.00
76060;BME280;64759;52.220;5.170;2023-04-24T11:22:00;100613.97;;;11.03;65.93
76060;BME280;64759;52.220;5.170;2023-04-24T11:27:15;100621.47;;;11.32;66.60
76060;BME280;64759;52.220;5.170;2023-04-24T11:29:44;100610.00;;;11.60;66.46
76060;BME280;64759;52.220;5.170;2023-04-24T11:35:01;100624.47;;;11.88;63.49
76060;BME280;64759;52.220;5.170;2023-04-24T11:37:38;100630.06;;;11.75;63.24
76060;BME280;64759;52.220;5.170;2023-04-24T11:40:05;100636.50;;;11.89;64.61
76060;BME280;64759;52.220;5.170;2023-04-24T11:42:39;100640.88;;;11.89;63.66
76060;BME280;64759;52.220;5.170;2023-04-24T11:45:23;100646.75;;;11.99;64.05
76060;BME280;64759;52.220;5.170;2023-04-24T11:47:49;100643.81;;;12.27;63.94
76060;BME280;64759;52.220;5.170;2023-04-24T11:50:17;100633.13;;;12.38;61.64
76060;BME280;64759;52.220;5.170;2023-04-24T11:52:44;100653.03;;;12.22;62.11
76060;BME280;64759;52.220;5.170;2023-04-24T11:57:49;100652.84;;;11.90;64.28
76060;BME280;64759;52.220;5.170;2023-04-24T12:00:28;100658.50;;;11.67;61.22
76060;BME280;64759;52.220;5.170;2023-04-24T12:03:08;100662.41;;;11.46;61.31
76060;BME280;64759;52.220;5.170;2023-04-24T12:05:35;100675.47;;;11.36;62.30
76060;BME280;64759;52.220;5.170;2023-04-24T12:08:01;100668.06;;;11.24;61.13
76060;BME280;64759;52.220;5.170;2023-04-24T12:10:28;100678.44;;;11.24;61.14
76060;BME280;64759;52.220;5.170;2023-04-24T12:12:57;100677.31;;;11.26;62.18
76060;BME280;64759;52.220;5.170;2023-04-24T12:15:23;100687.59;;;11.18;60.82
76060;BME280;64759;52.220;5.170;2023-04-24T12:17:51;100688.50;;;11.27;61.72
76060;BME280;64759;52.220;5.170;2023-04-24T12:20:17;100693.69;;;11.27;62.17
76060;BME280;64759;52.220;5.170;2023-04-24T12:22:53;100685.53;;;11.04;62.08
76060;BME280;64759;52.220;5.170;2023-04-24T12:25:21;100694.94;;;11.05;62.88
76060;BME280;64759;52.220;5.170;2023-04-24T12:27:53;100695.25;;;11.02;62.55
76060;BME280;64759;52.220;5.170;2023-04-24T12:30:19;100696.13;;;10.93;61.63
76060;BME280;64759;52.220;5.170;2023-04-24T12:32:47;100699.06;;;10.80;62.11
76060;BME280;64759;52.220;5.170;2023-04-24T12:35:14;100722.28;;;10.72;63.81
76060;BME280;64759;52.220;5.170;2023-04-24T12:37:43;100725.00;;;10.71;64.83
76060;BME280;64759;52.220;5.170;2023-04-24T12:40:10;100746.56;;;10.62;67.00
76060;BME280;64759;52.220;5.170;2023-04-24T12:42:42;100739.31;;;10.38;69.46
76060;BME280;64759;52.220;5.170;2023-04-24T12:45:08;100740.31;;;10.18;71.39
76060;BME280;64759;52.220;5.170;2023-04-24T12:47:35;100746.78;;;9.85;72.29
76060;BME280;64759;52.220;5.170;2023-04-24T12:50:01;100752.06;;;9.83;72.86
76060;BME280;64759;52.220;5.170;2023-04-24T12:52:29;100751.13;;;9.84;73.32
76060;BME280;64759;52.220;5.170;2023-04-24T12:54:56;100753.56;;;9.96;72.68
76060;BME280;64759;52.220;5.170;2023-04-24T12:57:27;100740.78;;;9.94;71.73
76060;BME280;64759;52.220;5.170;2023-04-24T12:59:54;100751.78;;;9.96;69.38
76060;BME280;64759;52.220;5.170;2023-04-24T13:02:21;100738.31;;;10.02;68.26
76060;BME280;64759;52.220;5.170;2023-04-24T13:04:47;100748.38;;;10.15;67.41
76060;BME280;64759;52.220;5.170;2023-04-24T13:07:15;100746.16;;;10.29;66.57
76060;BME280;64759;52.220;5.170;2023-04-24T13:09:41;100748.09;;;10.55;66.31
76060;BME280;64759;52.220;5.170;2023-04-24T13:12:08;100745.72;;;10.98;66.72
76060;BME280;64759;52.220;5.170;2023-04-24T13:14:34;100755.66;;;11.02;63.44